Old Hickory Observed Data For Previous 48 Hours

Caption
Day and Hour Reservoir Elevation (behind dam)* Tailwater Elevation (below dam)* Average Hourly Discharge*
3/22/2019 1 AM CDT 445.02 408.26 60,800
3/22/2019 2 AM CDT 445.04 408.15 60,800
3/22/2019 3 AM CDT 445.03 408.10 60,800
3/22/2019 4 AM CDT 445.02 408.01 60,800
3/22/2019 5 AM CDT 445.03 407.92 60,800
3/22/2019 6 AM CDT 445.03 407.95 60,800
3/22/2019 7 AM CDT 445.03 408.11 60,800
3/22/2019 8 AM CDT 445.03 408.25 60,800
3/22/2019 9 AM CDT 445.03 408.27 60,800
3/22/2019 10 AM CDT 445.03 408.30 61,000
3/22/2019 11 AM CDT 445.00 408.37 61,000
3/22/2019 12 PM CDT 445.00 408.41 61,000
3/22/2019 1 PM CDT 444.97 408.41 61,000
3/22/2019 2 PM CDT 445.00 408.22 60,800
3/22/2019 3 PM CDT 444.97 408.20 61,200
3/22/2019 4 PM CDT 444.97 408.11 60,400
3/22/2019 5 PM CDT 444.97 408.11 60,400
3/22/2019 6 PM CDT 444.94 408.01 60,400
3/22/2019 7 PM CDT 444.94 408.05 60,400
3/22/2019 8 PM CDT 444.94 408.10 60,400
3/22/2019 9 PM CDT 444.94 408.20 60,400
3/22/2019 10 PM CDT 444.93 408.24 60,400
3/22/2019 11 PM CDT 444.93 408.24 60,400
3/23/2019 12 AM CDT 444.93 408.24 60,400
3/23/2019 1 AM CDT 444.92 408.20 60,400
3/23/2019 2 AM CDT 444.92 408.15 60,400
3/23/2019 3 AM CDT 444.91 408.10 60,400
3/23/2019 4 AM CDT 444.91 408.05 60,400
3/23/2019 5 AM CDT 444.90 408.00 60,400
3/23/2019 6 AM CDT 444.90 407.95 60,400
3/23/2019 7 AM CDT 444.89 407.95 60,400
3/23/2019 8 AM CDT 444.88 407.96 60,400
3/23/2019 9 AM CDT 444.87 407.97 60,400
3/23/2019 10 AM CDT 444.85 407.98 60,400
3/23/2019 11 AM CDT 444.84 407.99 60,400
3/23/2019 12 PM CDT 444.84 407.94 60,400
3/23/2019 1 PM CDT 444.91 407.21 55,700
3/23/2019 2 PM CDT 444.90 407.12 55,500
3/23/2019 3 PM CDT 444.91 407.04 55,500
3/23/2019 4 PM CDT 444.91 406.92 55,500
3/23/2019 5 PM CDT 444.92 406.85 55,500
3/23/2019 6 PM CDT 444.94 406.77 55,500
3/23/2019 7 PM CDT 444.93 406.70 55,700
3/23/2019 8 PM CDT 444.92 406.64 55,700
3/23/2019 9 PM CDT 444.91 406.59 55,700
3/23/2019 10 PM CDT 444.91 406.59 55,700
3/23/2019 11 PM CDT 444.91 406.59 55,700
3/24/2019 12 AM CDT 444.91 406.59 55,700

Elevations are in feet above sea level. Discharges are in cubic feet per second and are reported at the end of the hour.